EDAC/ADC METAR and TAF weather

Enter ICAO airport designator
Station Type Date Time Source
EDAC METAR 2024/04/17 18:20 UTC NOAA

EDAC 171820Z AUTO VRB02KT 9999 // FEW053/// BKN087/// 05/03 Q1008


Station Type Date Time Source
EDAC Decoded METAR 2024/04/17 18:20 UTC NOAA

Altenburg Nobitz, Germany (EDAC) 50-58N 012-30E
Apr 17, 2024 - 02:20 PM EDT / 2024.04.17 1820 UTC
Wind: Variable at 2 MPH (2 KT):0
Visibility: greater than 7 mile(s):0
Sky conditions: mostly cloudy
Temperature: 41 F (5 C)
Dew Point: 37 F (3 C)
Relative Humidity: 86%
Pressure (altimeter): 29.77 in. Hg (1008 hPa)
ob: EDAC 171820Z AUTO VRB02KT 9999 // FEW053/// BKN087/// 05/03 Q1008
cycle: 18

Station Type Date Time Source
EDAC TAF UTC NOAA

Error!

Example: see airport list